ICE416 BIKF-EIDW
Flight info
| Callsign | ICE416 |
|---|---|
| Flight time | 2h 7m |
| Altitude | 35000 |
| Route | RIMUM1A RIMUM DCT RUMUX DCT RAPAX DCT ETILO/N0453F350 DCT EVNAL DCT TUXOS DCT BELZU DCT NUMPI P620 NIMAT NIMAT4L |
| Aircraft | B38M/M-SDE1FGHILORVWXY/HB1 |
Departure
| Time | 2026-05-07 16:35 |
|---|---|
| Airport | Keflavik International Airport (BIKF) |
Arrival
| Time | 2026-05-07 18:43 |
|---|---|
| Airport | Dublin Airport (EIDW) |
| Time | Latitude | Longitude | Altitude | Speed | Heading |
|---|---|---|---|---|---|
| 2026-05-07 16:05 | 63.99379 | -22.62195 | 143 ft | 0 kts | 238° |
| 2026-05-07 16:18 | 63.99384 | -22.62178 | 143 ft | 4 kts | 237° |
| 2026-05-07 16:18 | 63.99399 | -22.62127 | 143 ft | 4 kts | 234° |
| 2026-05-07 16:18 | 63.99412 | -22.62085 | 143 ft | 4 kts | 229° |
| 2026-05-07 16:19 | 63.99432 | -22.62057 | 143 ft | 4 kts | 178° |
| 2026-05-07 16:19 | 63.99455 | -22.62076 | 143 ft | 4 kts | 149° |
| 2026-05-07 16:19 | 63.99460 | -22.62082 | 143 ft | 4 kts | 152° |
| 2026-05-07 16:19 | 63.99437 | -22.62051 | 143 ft | 4 kts | 149° |
| 2026-05-07 16:20 | 63.99430 | -22.62041 | 143 ft | 1 kts | 149° |
| 2026-05-07 16:22 | 63.99427 | -22.62038 | 143 ft | 1 kts | 149° |
| 2026-05-07 16:22 | 63.99407 | -22.62011 | 143 ft | 6 kts | 149° |
| 2026-05-07 16:23 | 63.99391 | -22.61996 | 143 ft | 0 kts | 166° |
| 2026-05-07 16:23 | 63.99390 | -22.61996 | 143 ft | 0 kts | 166° |
| 2026-05-07 16:25 | 63.99373 | -22.61990 | 143 ft | 6 kts | 172° |
| 2026-05-07 16:25 | 63.99302 | -22.61991 | 143 ft | 15 kts | 180° |
| 2026-05-07 16:26 | 63.99184 | -22.61981 | 143 ft | 5 kts | 158° |
| 2026-05-07 16:26 | 63.99175 | -22.61941 | 143 ft | 2 kts | 94° |
| 2026-05-07 16:26 | 63.99173 | -22.61872 | 143 ft | 7 kts | 94° |
| 2026-05-07 16:26 | 63.99173 | -22.61730 | 146 ft | 12 kts | 89° |
| 2026-05-07 16:27 | 63.99174 | -22.61502 | 151 ft | 15 kts | 90° |
| 2026-05-07 16:27 | 63.99173 | -22.61273 | 156 ft | 14 kts | 90° |
| 2026-05-07 16:27 | 63.99173 | -22.61071 | 160 ft | 12 kts | 90° |
| 2026-05-07 16:27 | 63.99157 | -22.60947 | 163 ft | 4 kts | 144° |
| 2026-05-07 16:28 | 63.99136 | -22.60939 | 164 ft | 5 kts | 180° |
| 2026-05-07 16:28 | 63.99053 | -22.60939 | 168 ft | 18 kts | 180° |
| 2026-05-07 16:28 | 63.98901 | -22.60938 | 168 ft | 25 kts | 180° |
| 2026-05-07 16:28 | 63.98734 | -22.60939 | 165 ft | 21 kts | 180° |
| 2026-05-07 16:29 | 63.98588 | -22.60939 | 167 ft | 21 kts | 180° |
| 2026-05-07 16:29 | 63.98438 | -22.60938 | 168 ft | 22 kts | 180° |
| 2026-05-07 16:29 | 63.98278 | -22.60938 | 167 ft | 24 kts | 180° |
| 2026-05-07 16:29 | 63.98131 | -22.60942 | 169 ft | 19 kts | 181° |
| 2026-05-07 16:30 | 63.97998 | -22.60940 | 171 ft | 19 kts | 180° |
| 2026-05-07 16:30 | 63.97860 | -22.60941 | 172 ft | 21 kts | 180° |
| 2026-05-07 16:30 | 63.97711 | -22.60941 | 171 ft | 22 kts | 178° |
| 2026-05-07 16:30 | 63.97549 | -22.60940 | 169 ft | 25 kts | 180° |
| 2026-05-07 16:31 | 63.97371 | -22.60941 | 166 ft | 27 kts | 180° |
| 2026-05-07 16:31 | 63.97174 | -22.60942 | 159 ft | 27 kts | 180° |
| 2026-05-07 16:31 | 63.96972 | -22.60941 | 152 ft | 31 kts | 180° |
| 2026-05-07 16:31 | 63.96791 | -22.60942 | 145 ft | 24 kts | 180° |
| 2026-05-07 16:32 | 63.96607 | -22.60941 | 138 ft | 28 kts | 179° |
| 2026-05-07 16:32 | 63.96467 | -22.60902 | 138 ft | 13 kts | 134° |
| 2026-05-07 16:32 | 63.96457 | -22.60767 | 141 ft | 7 kts | 89° |
| 2026-05-07 16:32 | 63.96459 | -22.60689 | 144 ft | 5 kts | 88° |
| 2026-05-07 16:33 | 63.96478 | -22.60563 | 147 ft | 13 kts | 39° |
| 2026-05-07 16:33 | 63.96535 | -22.60542 | 149 ft | 0 kts | 360° |
| 2026-05-07 16:34 | 63.96615 | -22.60542 | 152 ft | 40 kts | 360° |
| 2026-05-07 16:34 | 63.97164 | -22.60544 | 167 ft | 115 kts | 360° |
| 2026-05-07 16:35 | 63.98167 | -22.60545 | 180 ft | 174 kts | 359° |
| 2026-05-07 16:35 | 63.99447 | -22.60546 | 763 ft | 190 kts | 360° |
| 2026-05-07 16:35 | 64.00816 | -22.60546 | 1522 ft | 205 kts | 359° |
| 2026-05-07 16:35 | 64.02306 | -22.60564 | 2211 ft | 224 kts | 359° |
| 2026-05-07 16:36 | 64.03956 | -22.60572 | 2730 ft | 250 kts | 0° |
| 2026-05-07 16:36 | 64.05741 | -22.60232 | 3519 ft | 260 kts | 11° |
| 2026-05-07 16:36 | 64.07374 | -22.58759 | 4765 ft | 253 kts | 34° |
| 2026-05-07 16:36 | 64.08591 | -22.55757 | 5512 ft | 267 kts | 62° |
| 2026-05-07 16:37 | 64.09060 | -22.51707 | 6365 ft | 272 kts | 89° |
| 2026-05-07 16:37 | 64.08827 | -22.47410 | 7257 ft | 276 kts | 106° |
| 2026-05-07 16:37 | 64.07971 | -22.43574 | 8392 ft | 265 kts | 130° |
| 2026-05-07 16:37 | 64.06483 | -22.40966 | 9041 ft | 281 kts | 160° |
| 2026-05-07 16:38 | 64.04537 | -22.40218 | 9769 ft | 285 kts | 175° |
| 2026-05-07 16:38 | 64.02553 | -22.39496 | 10493 ft | 296 kts | 169° |
| 2026-05-07 16:38 | 64.00467 | -22.38555 | 10893 ft | 316 kts | 169° |
| 2026-05-07 16:38 | 63.98243 | -22.37509 | 11243 ft | 336 kts | 168° |
| 2026-05-07 16:39 | 63.95900 | -22.36380 | 11647 ft | 352 kts | 168° |
| 2026-05-07 16:39 | 63.93465 | -22.35191 | 12235 ft | 360 kts | 168° |
| 2026-05-07 16:39 | 63.91046 | -22.34003 | 13016 ft | 363 kts | 168° |
| 2026-05-07 16:39 | 63.88559 | -22.32780 | 13715 ft | 368 kts | 168° |
| 2026-05-07 16:40 | 63.86053 | -22.31548 | 14438 ft | 371 kts | 168° |
| 2026-05-07 16:40 | 63.83515 | -22.30303 | 15134 ft | 375 kts | 168° |
| 2026-05-07 16:40 | 63.80951 | -22.29046 | 15837 ft | 379 kts | 168° |
| 2026-05-07 16:40 | 63.78362 | -22.27780 | 16495 ft | 382 kts | 168° |
| 2026-05-07 16:41 | 63.75750 | -22.26505 | 17136 ft | 386 kts | 168° |
| 2026-05-07 16:41 | 63.73110 | -22.25219 | 17759 ft | 390 kts | 168° |
| 2026-05-07 16:41 | 63.70447 | -22.23924 | 18365 ft | 393 kts | 168° |
| 2026-05-07 16:41 | 63.67793 | -22.22636 | 18946 ft | 397 kts | 168° |
| 2026-05-07 16:42 | 63.65083 | -22.21323 | 19533 ft | 400 kts | 168° |
| 2026-05-07 16:42 | 63.62349 | -22.20002 | 20076 ft | 404 kts | 168° |
| 2026-05-07 16:42 | 63.59593 | -22.18672 | 20622 ft | 407 kts | 168° |
| 2026-05-07 16:42 | 63.56811 | -22.17332 | 21144 ft | 410 kts | 168° |
| 2026-05-07 16:43 | 63.54011 | -22.15986 | 21669 ft | 413 kts | 168° |
| 2026-05-07 16:43 | 63.51270 | -22.14000 | 22159 ft | 416 kts | 155° |
| 2026-05-07 16:43 | 63.48646 | -22.11230 | 22648 ft | 420 kts | 155° |
| 2026-05-07 16:43 | 63.46019 | -22.08512 | 23108 ft | 423 kts | 155° |
| 2026-05-07 16:44 | 63.43345 | -22.05730 | 23579 ft | 426 kts | 155° |
| 2026-05-07 16:44 | 63.40650 | -22.02926 | 24034 ft | 429 kts | 155° |
| 2026-05-07 16:44 | 63.37934 | -22.00103 | 24476 ft | 432 kts | 155° |
| 2026-05-07 16:44 | 63.35202 | -21.97269 | 24907 ft | 435 kts | 155° |
| 2026-05-07 16:45 | 63.32450 | -21.94419 | 25328 ft | 437 kts | 155° |
| 2026-05-07 16:45 | 63.29684 | -21.91561 | 25736 ft | 440 kts | 155° |
| 2026-05-07 16:45 | 63.26901 | -21.88692 | 26132 ft | 443 kts | 155° |
| 2026-05-07 16:45 | 63.24097 | -21.85808 | 26517 ft | 445 kts | 155° |
| 2026-05-07 16:46 | 63.21316 | -21.82953 | 26893 ft | 448 kts | 155° |
| 2026-05-07 16:46 | 63.18480 | -21.80048 | 27255 ft | 450 kts | 155° |
| 2026-05-07 16:46 | 63.15623 | -21.77128 | 27620 ft | 453 kts | 155° |
| 2026-05-07 16:46 | 63.12759 | -21.74206 | 27968 ft | 455 kts | 155° |
| 2026-05-07 16:47 | 63.09877 | -21.71254 | 28308 ft | 458 kts | 154° |
| 2026-05-07 16:47 | 63.07230 | -21.67367 | 28640 ft | 460 kts | 137° |
| 2026-05-07 16:47 | 63.05020 | -21.62245 | 28969 ft | 462 kts | 133° |
| 2026-05-07 16:47 | 63.02847 | -21.56992 | 29233 ft | 465 kts | 132° |
| 2026-05-07 16:48 | 63.00711 | -21.51767 | 29557 ft | 467 kts | 132° |
| 2026-05-07 16:48 | 62.98540 | -21.46418 | 29869 ft | 469 kts | 132° |
| 2026-05-07 16:48 | 62.96369 | -21.41057 | 30171 ft | 471 kts | 131° |
| 2026-05-07 16:48 | 62.94188 | -21.35678 | 30548 ft | 471 kts | 132° |
| 2026-05-07 16:49 | 62.92009 | -21.30315 | 30966 ft | 470 kts | 132° |
| 2026-05-07 16:49 | 62.89830 | -21.24962 | 31369 ft | 469 kts | 132° |
| 2026-05-07 16:49 | 62.87655 | -21.19636 | 31765 ft | 469 kts | 132° |
| 2026-05-07 16:49 | 62.85481 | -21.14321 | 32160 ft | 468 kts | 132° |
| 2026-05-07 16:50 | 62.83315 | -21.09039 | 32532 ft | 467 kts | 132° |
| 2026-05-07 16:50 | 62.81140 | -21.03749 | 32916 ft | 466 kts | 132° |
| 2026-05-07 16:50 | 62.78969 | -20.98482 | 33272 ft | 465 kts | 132° |
| 2026-05-07 16:50 | 62.76806 | -20.93244 | 33631 ft | 465 kts | 132° |
| 2026-05-07 16:51 | 62.74670 | -20.88086 | 33972 ft | 464 kts | 132° |
| 2026-05-07 16:51 | 62.72507 | -20.82874 | 34323 ft | 463 kts | 132° |
| 2026-05-07 16:51 | 62.70343 | -20.77672 | 34651 ft | 463 kts | 132° |
| 2026-05-07 16:51 | 62.68180 | -20.72486 | 34943 ft | 463 kts | 132° |
| 2026-05-07 16:52 | 62.66012 | -20.67299 | 35011 ft | 463 kts | 132° |
| 2026-05-07 16:52 | 62.61690 | -20.56995 | 35007 ft | 460 kts | 133° |
| 2026-05-07 16:53 | 62.57366 | -20.46734 | 35005 ft | 460 kts | 133° |
| 2026-05-07 16:53 | 62.53066 | -20.36575 | 34997 ft | 460 kts | 133° |
| 2026-05-07 16:54 | 62.48728 | -20.26376 | 35004 ft | 461 kts | 133° |
| 2026-05-07 16:54 | 62.44381 | -20.16202 | 34994 ft | 461 kts | 133° |
| 2026-05-07 16:55 | 62.40030 | -20.06055 | 35003 ft | 461 kts | 133° |
| 2026-05-07 16:55 | 62.35474 | -19.96522 | 35014 ft | 460 kts | 139° |
| 2026-05-07 16:56 | 62.30663 | -19.87441 | 34998 ft | 460 kts | 139° |
| 2026-05-07 16:56 | 62.23480 | -19.73734 | 35007 ft | 460 kts | 139° |
| 2026-05-07 16:57 | 62.18686 | -19.64622 | 34996 ft | 460 kts | 139° |
| 2026-05-07 16:57 | 62.13924 | -19.55610 | 35000 ft | 460 kts | 139° |
| 2026-05-07 16:58 | 62.09117 | -19.46553 | 35000 ft | 460 kts | 139° |
| 2026-05-07 16:58 | 62.04307 | -19.37532 | 35001 ft | 460 kts | 139° |
| 2026-05-07 16:59 | 61.99496 | -19.28546 | 34993 ft | 460 kts | 139° |
| 2026-05-07 16:59 | 61.94707 | -19.19642 | 35002 ft | 460 kts | 139° |
| 2026-05-07 17:00 | 61.89877 | -19.10700 | 34999 ft | 460 kts | 139° |
| 2026-05-07 17:00 | 61.85041 | -19.01785 | 34998 ft | 460 kts | 139° |
| 2026-05-07 17:01 | 61.80205 | -18.92909 | 34997 ft | 460 kts | 139° |
| 2026-05-07 17:01 | 61.75394 | -18.84115 | 34998 ft | 460 kts | 139° |
| 2026-05-07 17:02 | 61.70540 | -18.75284 | 34999 ft | 460 kts | 139° |
| 2026-05-07 17:02 | 61.65687 | -18.66491 | 34999 ft | 460 kts | 139° |
| 2026-05-07 17:03 | 61.60824 | -18.57719 | 34998 ft | 460 kts | 140° |
| 2026-05-07 17:03 | 61.55989 | -18.49028 | 35001 ft | 460 kts | 140° |
| 2026-05-07 17:04 | 61.51120 | -18.40310 | 35000 ft | 460 kts | 139° |
| 2026-05-07 17:04 | 61.48883 | -18.35535 | 35000 ft | 459 kts | 128° |
| 2026-05-07 17:04 | 61.46865 | -18.30350 | 34999 ft | 461 kts | 130° |
| 2026-05-07 17:05 | 61.42767 | -18.20053 | 35002 ft | 461 kts | 130° |
| 2026-05-07 17:05 | 61.38695 | -18.09831 | 35002 ft | 461 kts | 130° |
| 2026-05-07 17:06 | 61.34596 | -17.99583 | 35001 ft | 461 kts | 130° |
| 2026-05-07 17:06 | 61.30481 | -17.89345 | 34994 ft | 461 kts | 130° |
| 2026-05-07 17:07 | 61.26364 | -17.79144 | 34994 ft | 461 kts | 130° |
| 2026-05-07 17:07 | 61.22236 | -17.68963 | 34996 ft | 461 kts | 130° |
| 2026-05-07 17:08 | 61.18127 | -17.58875 | 34996 ft | 461 kts | 130° |
| 2026-05-07 17:08 | 61.13985 | -17.48749 | 35007 ft | 461 kts | 130° |
| 2026-05-07 17:09 | 61.09839 | -17.38658 | 34997 ft | 461 kts | 130° |
| 2026-05-07 17:09 | 61.05680 | -17.28583 | 34998 ft | 461 kts | 130° |
| 2026-05-07 17:10 | 61.01539 | -17.18593 | 35001 ft | 461 kts | 130° |
| 2026-05-07 17:10 | 60.97365 | -17.08570 | 35006 ft | 461 kts | 131° |
| 2026-05-07 17:11 | 60.93185 | -16.98574 | 35002 ft | 461 kts | 131° |
| 2026-05-07 17:11 | 60.89000 | -16.88611 | 35005 ft | 461 kts | 131° |
| 2026-05-07 17:12 | 60.84807 | -16.78672 | 34995 ft | 461 kts | 131° |
| 2026-05-07 17:12 | 60.80632 | -16.68819 | 34999 ft | 461 kts | 131° |
| 2026-05-07 17:13 | 60.76421 | -16.58926 | 35004 ft | 461 kts | 131° |
| 2026-05-07 17:13 | 60.72208 | -16.49069 | 34995 ft | 461 kts | 131° |
| 2026-05-07 17:14 | 60.67986 | -16.39235 | 34995 ft | 461 kts | 131° |
| 2026-05-07 17:14 | 60.63781 | -16.29482 | 34998 ft | 461 kts | 131° |
| 2026-05-07 17:15 | 60.59542 | -16.19694 | 35001 ft | 461 kts | 131° |
| 2026-05-07 17:15 | 60.55298 | -16.09935 | 34997 ft | 461 kts | 131° |
| 2026-05-07 17:16 | 60.51048 | -16.00202 | 35001 ft | 461 kts | 131° |
| 2026-05-07 17:16 | 60.46821 | -15.90566 | 35006 ft | 461 kts | 132° |
| 2026-05-07 17:17 | 60.42556 | -15.80884 | 35004 ft | 461 kts | 132° |
| 2026-05-07 17:17 | 60.38281 | -15.71221 | 34998 ft | 461 kts | 132° |
| 2026-05-07 17:18 | 60.34004 | -15.61594 | 35004 ft | 461 kts | 132° |
| 2026-05-07 17:18 | 60.29743 | -15.52045 | 35003 ft | 461 kts | 132° |
| 2026-05-07 17:19 | 60.25451 | -15.42465 | 34999 ft | 461 kts | 132° |
| 2026-05-07 17:19 | 60.21147 | -15.32899 | 35007 ft | 461 kts | 132° |
| 2026-05-07 17:20 | 60.16840 | -15.23367 | 35002 ft | 461 kts | 132° |
| 2026-05-07 17:20 | 60.12527 | -15.13861 | 34997 ft | 461 kts | 132° |
| 2026-05-07 17:21 | 60.08231 | -15.04434 | 35002 ft | 461 kts | 133° |
| 2026-05-07 17:21 | 60.03908 | -14.94987 | 34993 ft | 461 kts | 133° |
| 2026-05-07 17:22 | 59.99575 | -14.85556 | 34999 ft | 461 kts | 133° |
| 2026-05-07 17:22 | 59.95231 | -14.76142 | 35000 ft | 461 kts | 133° |
| 2026-05-07 17:23 | 59.90883 | -14.66755 | 35002 ft | 461 kts | 133° |
| 2026-05-07 17:23 | 59.86557 | -14.57459 | 34997 ft | 461 kts | 133° |
| 2026-05-07 17:24 | 59.82198 | -14.48127 | 35003 ft | 461 kts | 133° |
| 2026-05-07 17:24 | 59.77830 | -14.38816 | 34998 ft | 461 kts | 133° |
| 2026-05-07 17:25 | 59.73453 | -14.29523 | 34998 ft | 461 kts | 133° |
| 2026-05-07 17:25 | 59.69071 | -14.20259 | 35000 ft | 461 kts | 133° |
| 2026-05-07 17:26 | 59.64717 | -14.11091 | 35003 ft | 461 kts | 133° |
| 2026-05-07 17:26 | 59.60323 | -14.01876 | 35005 ft | 461 kts | 133° |
| 2026-05-07 17:27 | 59.55919 | -13.92678 | 34998 ft | 461 kts | 133° |
| 2026-05-07 17:27 | 59.51513 | -13.83514 | 35000 ft | 461 kts | 134° |
| 2026-05-07 17:28 | 59.47129 | -13.74433 | 34999 ft | 461 kts | 134° |
| 2026-05-07 17:28 | 59.42709 | -13.65313 | 35005 ft | 461 kts | 134° |
| 2026-05-07 17:29 | 59.38285 | -13.56222 | 35002 ft | 461 kts | 134° |
| 2026-05-07 17:29 | 59.33854 | -13.47153 | 35003 ft | 461 kts | 134° |
| 2026-05-07 17:30 | 59.29415 | -13.38105 | 35005 ft | 461 kts | 134° |
| 2026-05-07 17:30 | 59.25002 | -13.29144 | 35007 ft | 461 kts | 134° |
| 2026-05-07 17:31 | 59.20547 | -13.20137 | 34998 ft | 461 kts | 134° |
| 2026-05-07 17:31 | 59.16089 | -13.11157 | 35004 ft | 461 kts | 134° |
| 2026-05-07 17:32 | 59.11627 | -13.02205 | 35002 ft | 461 kts | 134° |
| 2026-05-07 17:32 | 59.07915 | -12.94785 | 34999 ft | 461 kts | 134° |
| 2026-05-07 17:33 | 59.02715 | -12.84435 | 34994 ft | 461 kts | 134° |
| 2026-05-07 17:33 | 58.98233 | -12.75550 | 34998 ft | 461 kts | 134° |
| 2026-05-07 17:34 | 58.93745 | -12.66687 | 34995 ft | 461 kts | 135° |
| 2026-05-07 17:34 | 58.89249 | -12.57846 | 35008 ft | 461 kts | 135° |
| 2026-05-07 17:35 | 58.84779 | -12.49089 | 35004 ft | 461 kts | 135° |
| 2026-05-07 17:35 | 58.80277 | -12.40302 | 35001 ft | 461 kts | 135° |
| 2026-05-07 17:36 | 58.75765 | -12.31534 | 35000 ft | 461 kts | 135° |
| 2026-05-07 17:36 | 58.71246 | -12.22783 | 35007 ft | 461 kts | 135° |
| 2026-05-07 17:37 | 58.66753 | -12.14118 | 34999 ft | 461 kts | 135° |
| 2026-05-07 17:37 | 58.62224 | -12.05417 | 35003 ft | 461 kts | 135° |
| 2026-05-07 17:38 | 58.57691 | -11.96742 | 34997 ft | 461 kts | 135° |
| 2026-05-07 17:38 | 58.53150 | -11.88086 | 34994 ft | 461 kts | 135° |
| 2026-05-07 17:39 | 58.48605 | -11.79454 | 35006 ft | 461 kts | 135° |
| 2026-05-07 17:39 | 58.44082 | -11.70899 | 35003 ft | 461 kts | 135° |
| 2026-05-07 17:40 | 58.39525 | -11.62311 | 35004 ft | 461 kts | 135° |
| 2026-05-07 17:40 | 58.34963 | -11.53747 | 35003 ft | 461 kts | 135° |
| 2026-05-07 17:41 | 58.30391 | -11.45199 | 34994 ft | 461 kts | 135° |
| 2026-05-07 17:41 | 58.25845 | -11.36729 | 34999 ft | 461 kts | 136° |
| 2026-05-07 17:42 | 58.21264 | -11.28227 | 35003 ft | 461 kts | 136° |
| 2026-05-07 17:42 | 58.16678 | -11.19750 | 35005 ft | 461 kts | 136° |
| 2026-05-07 17:43 | 58.12088 | -11.11297 | 34997 ft | 461 kts | 136° |
| 2026-05-07 17:43 | 58.07487 | -11.02855 | 34998 ft | 461 kts | 136° |
| 2026-05-07 17:44 | 58.02918 | -10.94503 | 34994 ft | 461 kts | 136° |
| 2026-05-07 17:44 | 57.98310 | -10.86113 | 34994 ft | 461 kts | 136° |
| 2026-05-07 17:45 | 57.93697 | -10.77745 | 35002 ft | 461 kts | 136° |
| 2026-05-07 17:45 | 57.89079 | -10.69392 | 34999 ft | 461 kts | 136° |
| 2026-05-07 17:46 | 57.84452 | -10.61053 | 35003 ft | 461 kts | 136° |
| 2026-05-07 17:46 | 57.79856 | -10.52799 | 35002 ft | 461 kts | 136° |
| 2026-05-07 17:47 | 57.75222 | -10.44506 | 35003 ft | 461 kts | 136° |
| 2026-05-07 17:47 | 57.70586 | -10.36241 | 35003 ft | 461 kts | 136° |
| 2026-05-07 17:48 | 57.65939 | -10.27987 | 34994 ft | 461 kts | 136° |
| 2026-05-07 17:48 | 57.61325 | -10.19818 | 34997 ft | 461 kts | 136° |
| 2026-05-07 17:49 | 57.56672 | -10.11611 | 35007 ft | 461 kts | 137° |
| 2026-05-07 17:49 | 57.52030 | -10.03399 | 35001 ft | 460 kts | 133° |
| 2026-05-07 17:50 | 57.50062 | -9.98716 | 35012 ft | 460 kts | 122° |
| 2026-05-07 17:50 | 57.48664 | -9.93382 | 34962 ft | 459 kts | 108° |
| 2026-05-07 17:50 | 57.46815 | -9.82085 | 35005 ft | 460 kts | 109° |
| 2026-05-07 17:51 | 57.44704 | -9.70839 | 35000 ft | 461 kts | 109° |
| 2026-05-07 17:51 | 57.42625 | -9.59583 | 35004 ft | 461 kts | 109° |
| 2026-05-07 17:52 | 57.39679 | -9.49170 | 35002 ft | 458 kts | 134° |
| 2026-05-07 17:52 | 57.34856 | -9.41524 | 34996 ft | 460 kts | 141° |
| 2026-05-07 17:53 | 57.29838 | -9.34173 | 34996 ft | 460 kts | 142° |
| 2026-05-07 17:53 | 57.24778 | -9.26914 | 35001 ft | 460 kts | 142° |
| 2026-05-07 17:54 | 57.19708 | -9.19685 | 35003 ft | 460 kts | 142° |
| 2026-05-07 17:54 | 57.14635 | -9.12477 | 34993 ft | 460 kts | 142° |
| 2026-05-07 17:55 | 57.09592 | -9.05339 | 35004 ft | 460 kts | 142° |
| 2026-05-07 17:55 | 57.04516 | -8.98179 | 34993 ft | 460 kts | 142° |
| 2026-05-07 17:56 | 56.99429 | -8.91029 | 35001 ft | 460 kts | 143° |
| 2026-05-07 17:56 | 56.94340 | -8.83901 | 34994 ft | 460 kts | 143° |
| 2026-05-07 17:57 | 56.90103 | -8.77986 | 35002 ft | 460 kts | 143° |
| 2026-05-07 17:57 | 56.84181 | -8.69746 | 35002 ft | 460 kts | 143° |
| 2026-05-07 17:58 | 56.79079 | -8.62675 | 35003 ft | 460 kts | 143° |
| 2026-05-07 17:58 | 56.73977 | -8.55629 | 35001 ft | 460 kts | 143° |
| 2026-05-07 17:59 | 56.68865 | -8.48593 | 35000 ft | 460 kts | 143° |
| 2026-05-07 17:59 | 56.63789 | -8.41632 | 34998 ft | 460 kts | 143° |
| 2026-05-07 18:00 | 56.58672 | -8.34638 | 35001 ft | 460 kts | 143° |
| 2026-05-07 18:00 | 56.53550 | -8.27662 | 35002 ft | 460 kts | 143° |
| 2026-05-07 18:01 | 56.48424 | -8.20703 | 35002 ft | 460 kts | 143° |
| 2026-05-07 18:01 | 56.43295 | -8.13766 | 35005 ft | 460 kts | 143° |
| 2026-05-07 18:02 | 56.35631 | -8.03444 | 35004 ft | 460 kts | 143° |
| 2026-05-07 18:03 | 56.30493 | -7.96554 | 35003 ft | 460 kts | 143° |
| 2026-05-07 18:03 | 56.25349 | -7.89679 | 34995 ft | 460 kts | 143° |
| 2026-05-07 18:04 | 56.20240 | -7.82875 | 34998 ft | 460 kts | 143° |
| 2026-05-07 18:04 | 56.15091 | -7.76040 | 35001 ft | 460 kts | 143° |
| 2026-05-07 18:05 | 56.09939 | -7.69223 | 35002 ft | 460 kts | 143° |
| 2026-05-07 18:05 | 56.04784 | -7.62422 | 35003 ft | 460 kts | 144° |
| 2026-05-07 18:06 | 55.99660 | -7.55684 | 35002 ft | 460 kts | 144° |
| 2026-05-07 18:06 | 55.94276 | -7.49537 | 35017 ft | 460 kts | 150° |
| 2026-05-07 18:07 | 55.88728 | -7.43836 | 35004 ft | 460 kts | 150° |
| 2026-05-07 18:07 | 55.83170 | -7.38166 | 35000 ft | 460 kts | 150° |
| 2026-05-07 18:08 | 55.77613 | -7.32518 | 35007 ft | 460 kts | 150° |
| 2026-05-07 18:08 | 55.72090 | -7.26924 | 35000 ft | 460 kts | 150° |
| 2026-05-07 18:09 | 55.66529 | -7.21309 | 34998 ft | 460 kts | 150° |
| 2026-05-07 18:09 | 55.60957 | -7.15702 | 34994 ft | 460 kts | 150° |
| 2026-05-07 18:10 | 55.55392 | -7.10119 | 34998 ft | 460 kts | 150° |
| 2026-05-07 18:10 | 55.49859 | -7.04588 | 35005 ft | 460 kts | 150° |
| 2026-05-07 18:11 | 55.44288 | -6.99036 | 35005 ft | 460 kts | 150° |
| 2026-05-07 18:11 | 55.38711 | -6.93497 | 35001 ft | 460 kts | 150° |
| 2026-05-07 18:12 | 55.33136 | -6.87978 | 35001 ft | 460 kts | 150° |
| 2026-05-07 18:12 | 55.28496 | -6.83398 | 34999 ft | 460 kts | 151° |
| 2026-05-07 18:13 | 55.22005 | -6.77012 | 34998 ft | 460 kts | 151° |
| 2026-05-07 18:13 | 55.16420 | -6.71536 | 35004 ft | 460 kts | 151° |
| 2026-05-07 18:14 | 55.11774 | -6.66995 | 35002 ft | 460 kts | 151° |
| 2026-05-07 18:14 | 55.06186 | -6.61549 | 35001 ft | 460 kts | 151° |
| 2026-05-07 18:15 | 55.00588 | -6.56111 | 35004 ft | 460 kts | 151° |
| 2026-05-07 18:15 | 54.94995 | -6.50695 | 34996 ft | 460 kts | 151° |
| 2026-05-07 18:16 | 54.89390 | -6.45284 | 35005 ft | 461 kts | 151° |
| 2026-05-07 18:16 | 54.83821 | -6.39927 | 34997 ft | 460 kts | 151° |
| 2026-05-07 18:17 | 54.78219 | -6.34553 | 35003 ft | 460 kts | 151° |
| 2026-05-07 18:17 | 54.72628 | -6.29205 | 34890 ft | 454 kts | 151° |
| 2026-05-07 18:17 | 54.69864 | -6.26567 | 34113 ft | 455 kts | 151° |
| 2026-05-07 18:18 | 54.67087 | -6.23915 | 33321 ft | 456 kts | 150° |
| 2026-05-07 18:18 | 54.64452 | -6.20884 | 32137 ft | 455 kts | 144° |
| 2026-05-07 18:18 | 54.61875 | -6.17687 | 30820 ft | 458 kts | 144° |
| 2026-05-07 18:18 | 54.59313 | -6.14503 | 29478 ft | 461 kts | 144° |
| 2026-05-07 18:19 | 54.56711 | -6.11264 | 28217 ft | 461 kts | 144° |
| 2026-05-07 18:19 | 54.54120 | -6.08042 | 27244 ft | 461 kts | 144° |
| 2026-05-07 18:19 | 54.51523 | -6.04818 | 26100 ft | 460 kts | 144° |
| 2026-05-07 18:19 | 54.48935 | -6.01610 | 25018 ft | 456 kts | 144° |
| 2026-05-07 18:20 | 54.46377 | -5.98445 | 23948 ft | 450 kts | 144° |
| 2026-05-07 18:20 | 54.43851 | -5.95323 | 22888 ft | 444 kts | 144° |
| 2026-05-07 18:20 | 54.41365 | -5.92255 | 21851 ft | 437 kts | 144° |
| 2026-05-07 18:20 | 54.38915 | -5.89237 | 20843 ft | 430 kts | 144° |
| 2026-05-07 18:21 | 54.36533 | -5.86306 | 19854 ft | 424 kts | 144° |
| 2026-05-07 18:21 | 54.34150 | -5.83379 | 18867 ft | 418 kts | 144° |
| 2026-05-07 18:21 | 54.31801 | -5.80497 | 18070 ft | 413 kts | 144° |
| 2026-05-07 18:21 | 54.29470 | -5.77643 | 17429 ft | 410 kts | 144° |
| 2026-05-07 18:22 | 54.27162 | -5.74820 | 16827 ft | 406 kts | 144° |
| 2026-05-07 18:22 | 54.25640 | -5.72959 | 16429 ft | 404 kts | 144° |
| 2026-05-07 18:22 | 54.22600 | -5.69251 | 15657 ft | 399 kts | 144° |
| 2026-05-07 18:22 | 54.20348 | -5.66507 | 15087 ft | 396 kts | 144° |
| 2026-05-07 18:23 | 54.18128 | -5.63858 | 14498 ft | 392 kts | 149° |
| 2026-05-07 18:23 | 54.15626 | -5.62141 | 13935 ft | 387 kts | 170° |
| 2026-05-07 18:23 | 54.12949 | -5.62041 | 13950 ft | 387 kts | 188° |
| 2026-05-07 18:23 | 54.10357 | -5.63262 | 14005 ft | 388 kts | 202° |
| 2026-05-07 18:24 | 54.07875 | -5.65070 | 13992 ft | 388 kts | 204° |
| 2026-05-07 18:24 | 54.05420 | -5.66974 | 13987 ft | 382 kts | 205° |
| 2026-05-07 18:24 | 54.03107 | -5.68823 | 14020 ft | 353 kts | 206° |
| 2026-05-07 18:24 | 54.00901 | -5.70612 | 14016 ft | 357 kts | 206° |
| 2026-05-07 18:25 | 53.98611 | -5.72487 | 13984 ft | 374 kts | 206° |
| 2026-05-07 18:25 | 53.96213 | -5.73982 | 14031 ft | 360 kts | 190° |
| 2026-05-07 18:25 | 53.93794 | -5.74310 | 14011 ft | 350 kts | 183° |
| 2026-05-07 18:25 | 53.91384 | -5.74531 | 13678 ft | 346 kts | 183° |
| 2026-05-07 18:26 | 53.88987 | -5.74728 | 13273 ft | 343 kts | 183° |
| 2026-05-07 18:26 | 53.86613 | -5.74909 | 12875 ft | 341 kts | 183° |
| 2026-05-07 18:26 | 53.84251 | -5.75082 | 12483 ft | 338 kts | 182° |
| 2026-05-07 18:26 | 53.81904 | -5.75250 | 12079 ft | 336 kts | 182° |
| 2026-05-07 18:27 | 53.79566 | -5.75416 | 11507 ft | 339 kts | 182° |
| 2026-05-07 18:27 | 53.77191 | -5.75584 | 10897 ft | 340 kts | 182° |
| 2026-05-07 18:27 | 53.74866 | -5.75748 | 10382 ft | 330 kts | 182° |
| 2026-05-07 18:27 | 53.72608 | -5.75907 | 9884 ft | 320 kts | 182° |
| 2026-05-07 18:28 | 53.70450 | -5.76058 | 9443 ft | 310 kts | 182° |
| 2026-05-07 18:28 | 53.68329 | -5.76207 | 9036 ft | 300 kts | 182° |
| 2026-05-07 18:28 | 53.66281 | -5.76351 | 8661 ft | 290 kts | 182° |
| 2026-05-07 18:28 | 53.64303 | -5.76430 | 8311 ft | 279 kts | 175° |
| 2026-05-07 18:29 | 53.62538 | -5.75361 | 8042 ft | 267 kts | 142° |
| 2026-05-07 18:29 | 53.61310 | -5.73028 | 8018 ft | 270 kts | 126° |
| 2026-05-07 18:29 | 53.60187 | -5.70481 | 8002 ft | 271 kts | 127° |
| 2026-05-07 18:29 | 53.59055 | -5.67940 | 8003 ft | 271 kts | 127° |
| 2026-05-07 18:30 | 53.57947 | -5.65442 | 7973 ft | 271 kts | 127° |
| 2026-05-07 18:30 | 53.56651 | -5.63174 | 7979 ft | 269 kts | 147° |
| 2026-05-07 18:30 | 53.55042 | -5.61548 | 8008 ft | 270 kts | 149° |
| 2026-05-07 18:30 | 53.53488 | -5.59947 | 8001 ft | 255 kts | 149° |
| 2026-05-07 18:31 | 53.51991 | -5.58410 | 8006 ft | 250 kts | 149° |
| 2026-05-07 18:31 | 53.50520 | -5.56902 | 7990 ft | 248 kts | 149° |
| 2026-05-07 18:31 | 53.48999 | -5.55536 | 7978 ft | 248 kts | 163° |
| 2026-05-07 18:31 | 53.47315 | -5.54980 | 8017 ft | 248 kts | 171° |
| 2026-05-07 18:32 | 53.45636 | -5.54491 | 8007 ft | 248 kts | 171° |
| 2026-05-07 18:32 | 53.43912 | -5.54000 | 8002 ft | 248 kts | 171° |
| 2026-05-07 18:32 | 53.42235 | -5.53529 | 7994 ft | 247 kts | 171° |
| 2026-05-07 18:32 | 53.40540 | -5.53060 | 7997 ft | 248 kts | 172° |
| 2026-05-07 18:33 | 53.38836 | -5.53170 | 7994 ft | 245 kts | 193° |
| 2026-05-07 18:33 | 53.37163 | -5.53793 | 8016 ft | 247 kts | 192° |
| 2026-05-07 18:33 | 53.35479 | -5.54402 | 8004 ft | 247 kts | 193° |
| 2026-05-07 18:33 | 53.33799 | -5.55020 | 8002 ft | 247 kts | 193° |
| 2026-05-07 18:34 | 53.32119 | -5.55642 | 7991 ft | 246 kts | 193° |
| 2026-05-07 18:34 | 53.30488 | -5.56356 | 7985 ft | 246 kts | 205° |
| 2026-05-07 18:34 | 53.29032 | -5.57838 | 8013 ft | 246 kts | 214° |
| 2026-05-07 18:34 | 53.27604 | -5.59416 | 8007 ft | 247 kts | 214° |
| 2026-05-07 18:35 | 53.26196 | -5.61043 | 7968 ft | 246 kts | 222° |
| 2026-05-07 18:35 | 53.25232 | -5.63354 | 7727 ft | 245 kts | 252° |
| 2026-05-07 18:35 | 53.25075 | -5.66149 | 7460 ft | 244 kts | 280° |
| 2026-05-07 18:35 | 53.25699 | -5.68761 | 7196 ft | 244 kts | 305° |
| 2026-05-07 18:36 | 53.26802 | -5.70915 | 6941 ft | 244 kts | 312° |
| 2026-05-07 18:36 | 53.27954 | -5.73000 | 6669 ft | 245 kts | 313° |
| 2026-05-07 18:36 | 53.29117 | -5.75069 | 6385 ft | 243 kts | 313° |
| 2026-05-07 18:36 | 53.30265 | -5.77089 | 6097 ft | 242 kts | 313° |
| 2026-05-07 18:37 | 53.31424 | -5.79116 | 5834 ft | 241 kts | 313° |
| 2026-05-07 18:37 | 53.32583 | -5.81137 | 5527 ft | 241 kts | 313° |
| 2026-05-07 18:37 | 53.33746 | -5.83158 | 5228 ft | 241 kts | 314° |
| 2026-05-07 18:37 | 53.34908 | -5.85177 | 4933 ft | 241 kts | 313° |
| 2026-05-07 18:38 | 53.36036 | -5.87136 | 4652 ft | 240 kts | 313° |
| 2026-05-07 18:38 | 53.37196 | -5.89150 | 4362 ft | 240 kts | 313° |
| 2026-05-07 18:38 | 53.38352 | -5.91160 | 4088 ft | 239 kts | 314° |
| 2026-05-07 18:38 | 53.39496 | -5.93174 | 3814 ft | 238 kts | 309° |
| 2026-05-07 18:39 | 53.40288 | -5.95577 | 3545 ft | 236 kts | 287° |
| 2026-05-07 18:39 | 53.40582 | -5.98226 | 3277 ft | 234 kts | 275° |
| 2026-05-07 18:39 | 53.40717 | -6.00894 | 3046 ft | 225 kts | 275° |
| 2026-05-07 18:39 | 53.40848 | -6.03458 | 2742 ft | 217 kts | 275° |
| 2026-05-07 18:40 | 53.40979 | -6.05894 | 2475 ft | 199 kts | 275° |
| 2026-05-07 18:40 | 53.41098 | -6.08097 | 2211 ft | 181 kts | 275° |
| 2026-05-07 18:40 | 53.41207 | -6.10106 | 1980 ft | 165 kts | 275° |
| 2026-05-07 18:40 | 53.41306 | -6.11911 | 1786 ft | 148 kts | 275° |
| 2026-05-07 18:41 | 53.41399 | -6.13607 | 1594 ft | 145 kts | 275° |
| 2026-05-07 18:41 | 53.41490 | -6.15261 | 1407 ft | 144 kts | 275° |
| 2026-05-07 18:41 | 53.41581 | -6.16933 | 1193 ft | 144 kts | 275° |
| 2026-05-07 18:41 | 53.41671 | -6.18595 | 1010 ft | 144 kts | 275° |
| 2026-05-07 18:42 | 53.41769 | -6.20259 | 828 ft | 146 kts | 276° |
| 2026-05-07 18:42 | 53.41866 | -6.21971 | 593 ft | 147 kts | 275° |
| 2026-05-07 18:42 | 53.41949 | -6.23677 | 403 ft | 145 kts | 275° |
| 2026-05-07 18:42 | 53.42041 | -6.25333 | 239 ft | 139 kts | 275° |
| 2026-05-07 18:43 | 53.42110 | -6.26623 | 213 ft | 64 kts | 275° |
| 2026-05-07 18:43 | 53.42128 | -6.26945 | 214 ft | 15 kts | 275° |
| 2026-05-07 18:43 | 53.42164 | -6.27067 | 216 ft | 9 kts | 359° |
| 2026-05-07 18:43 | 53.42261 | -6.27047 | 221 ft | 15 kts | 7° |
| 2026-05-07 18:44 | 53.42309 | -6.26982 | 220 ft | 7 kts | 90° |
| 2026-05-07 18:44 | 53.42301 | -6.26897 | 213 ft | 8 kts | 95° |
| 2026-05-07 18:44 | 53.42294 | -6.26784 | 213 ft | 11 kts | 95° |
| 2026-05-07 18:44 | 53.42286 | -6.26641 | 213 ft | 14 kts | 95° |
| 2026-05-07 18:45 | 53.42276 | -6.26469 | 218 ft | 16 kts | 95° |
| 2026-05-07 18:45 | 53.42264 | -6.26267 | 213 ft | 19 kts | 95° |
| 2026-05-07 18:45 | 53.42256 | -6.26045 | 213 ft | 16 kts | 81° |
| 2026-05-07 18:45 | 53.42296 | -6.25912 | 217 ft | 11 kts | 48° |
| 2026-05-07 18:46 | 53.42309 | -6.25890 | 216 ft | 2 kts | 45° |
| 2026-05-07 18:46 | 53.42326 | -6.25861 | 213 ft | 5 kts | 45° |
| 2026-05-07 18:46 | 53.42356 | -6.25810 | 213 ft | 8 kts | 45° |
| 2026-05-07 18:46 | 53.42400 | -6.25736 | 213 ft | 10 kts | 45° |
| 2026-05-07 18:47 | 53.42456 | -6.25639 | 213 ft | 13 kts | 45° |
| 2026-05-07 18:47 | 53.42525 | -6.25520 | 219 ft | 16 kts | 45° |
| 2026-05-07 18:47 | 53.42609 | -6.25377 | 212 ft | 19 kts | 45° |
| 2026-05-07 18:47 | 53.42698 | -6.25224 | 213 ft | 18 kts | 45° |
| 2026-05-07 18:48 | 53.42772 | -6.25078 | 213 ft | 11 kts | 81° |
| 2026-05-07 18:48 | 53.42738 | -6.25000 | 213 ft | 8 kts | 155° |
| 2026-05-07 18:48 | 53.42699 | -6.24959 | 217 ft | 3 kts | 122° |
| 2026-05-07 18:48 | 53.42700 | -6.24938 | 220 ft | 3 kts | 66° |
| 2026-05-07 18:49 | 53.42734 | -6.24896 | 213 ft | 7 kts | 32° |
| 2026-05-07 18:49 | 53.42750 | -6.24878 | 214 ft | 1 kts | 32° |
| 2026-05-07 18:49 | 53.42753 | -6.24876 | 221 ft | 0 kts | 32° |
| 2026-05-07 18:50 | 53.42752 | -6.24877 | 221 ft | 0 kts | 33° |